Main page
METAR-TAF:

METAR-TAF

Airports :

Beirut Air Base

Beirut, Lebanon

latitude: 33-49N, longitude: 035-29E, elevation: 29 m

METAR: missing

Time: 01:35 (22:35 UTC)

Forecast

The report was made 6 hours and 35 minutes ago, at 16:00 UTC
Forecast valid from 21 at 18 UTC to 22 at 24 UTC
Wind 5 kt from the South/Southeast
Visibility 10 km or more
Few clouds at a height of 3000 ft
Becoming
from 22 at 06 UTC to 22 at 08 UTC
Wind 10 kt from the West
Visibility: 8000 m
Scattered clouds at a height of 3000 ft
Becoming
between 15 and 00 UTC
Visibility 10 km or more
Few clouds at a height of 2600 ft

TAF: OLBA 211600Z 2118/2224 16005KT 9999 FEW030 BECMG 2206/2208 26010KT 8000 SCT030 BECMG 15004KT 9999 FEW026

Weather observations and forecasts of more than 4000 airports (METAR and TAF reports).

The available stations are represented by yellow and red dots on the map.

Hover mouse over dot to see the name of the station.

Then click to see weather observations and forecasts.

To change the map : click on the green buttons with a black cross to zoom in, on the green button with a dash to zoom out, or on the green arrows for adjacent maps.


METAR-TAF: